createdAt,value
2018-01-27T00:00:31.444Z,70.03
2018-01-27T00:03:02.541Z,69.94
2018-01-27T00:05:33.716Z,69.76
2018-01-27T00:08:04.811Z,69.66
2018-01-27T00:10:35.947Z,69.35
2018-01-27T00:13:07.010Z,69.16
2018-01-27T00:15:38.074Z,69.30
2018-01-27T00:18:09.174Z,69.18
2018-01-27T00:20:40.296Z,69.25
2018-01-27T00:23:12.108Z,69.48
2018-01-27T00:25:43.160Z,69.62
2018-01-27T00:28:14.240Z,69.85
2018-01-27T00:30:45.362Z,70.00
2018-01-27T00:33:16.448Z,70.14
2018-01-27T00:35:47.573Z,70.66
2018-01-27T00:38:18.649Z,70.96
2018-01-27T00:40:49.768Z,70.99
2018-01-27T00:43:20.836Z,71.18
2018-01-27T00:45:51.940Z,71.18
2018-01-27T00:48:23.049Z,71.13
2018-01-27T00:51:01.054Z,71.30
2018-01-27T00:53:32.123Z,71.11
2018-01-27T00:56:03.197Z,70.96
2018-01-27T00:58:34.348Z,70.87
2018-01-27T01:01:05.423Z,70.74
2018-01-27T01:03:36.507Z,70.51
2018-01-27T01:06:07.622Z,70.14
2018-01-27T01:08:38.708Z,69.88
2018-01-27T01:11:09.784Z,69.45
2018-01-27T01:13:40.908Z,69.12
2018-01-27T01:16:12.094Z,68.82
2018-01-27T01:18:43.167Z,68.53
2018-01-27T01:21:14.226Z,68.28
2018-01-27T01:23:45.333Z,68.14
2018-01-27T01:26:16.466Z,67.68
2018-01-27T01:28:47.590Z,67.10
2018-01-27T01:31:18.681Z,67.11
2018-01-27T01:33:49.772Z,67.04
2018-01-27T01:36:20.830Z,66.88
2018-01-27T01:38:51.907Z,67.09
2018-01-27T01:41:23.032Z,67.22
2018-01-27T01:44:00.110Z,67.52
2018-01-27T01:46:31.172Z,67.61
2018-01-27T01:49:14.539Z,67.49
2018-01-27T01:51:45.604Z,67.62
2018-01-27T01:54:16.680Z,67.30
2018-01-27T01:56:48.137Z,66.96
2018-01-27T01:59:19.180Z,66.90
2018-01-27T02:01:50.233Z,66.56
2018-01-27T02:04:21.385Z,66.11
2018-01-27T02:06:52.437Z,66.27
2018-01-27T02:09:23.489Z,65.44
2018-01-27T02:11:55.601Z,65.25
2018-01-27T02:14:26.829Z,65.69
2018-01-27T02:16:57.912Z,66.18
2018-01-27T02:19:29.044Z,66.30
2018-01-27T02:22:00.486Z,66.18
2018-01-27T02:24:31.601Z,66.34
2018-01-27T02:27:02.680Z,66.44
2018-01-27T02:29:33.733Z,66.45
2018-01-27T02:32:04.854Z,66.59
2018-01-27T02:34:35.968Z,66.54
2018-01-27T02:37:07.048Z,66.68
2018-01-27T02:39:38.175Z,66.80
2018-01-27T02:42:09.286Z,67.06
2018-01-27T02:44:40.371Z,67.50
2018-01-27T02:47:11.448Z,68.24
2018-01-27T02:49:42.498Z,69.25
2018-01-27T02:52:13.582Z,69.82
2018-01-27T02:54:44.722Z,69.67
2018-01-27T02:57:15.826Z,70.14
2018-01-27T02:59:46.904Z,70.20
2018-01-27T03:02:17.941Z,70.34
2018-01-27T03:04:49.051Z,69.96
2018-01-27T03:07:20.130Z,69.77
2018-01-27T03:09:51.286Z,69.73
2018-01-27T03:12:22.338Z,69.85
2018-01-27T03:14:53.415Z,69.72
2018-01-27T03:17:24.529Z,69.70
2018-01-27T03:19:55.603Z,69.74
2018-01-27T03:22:26.708Z,69.72
2018-01-27T03:24:57.787Z,69.33
2018-01-27T03:27:28.878Z,68.96
2018-01-27T03:29:59.987Z,68.82
2018-01-27T03:32:31.033Z,68.37
2018-01-27T03:35:02.122Z,68.06
2018-01-27T03:37:33.218Z,67.95
2018-01-27T03:40:04.302Z,67.76
2018-01-27T03:42:35.346Z,67.43
2018-01-27T03:45:06.447Z,67.09
2018-01-27T03:47:37.501Z,67.12
2018-01-27T03:50:08.567Z,67.28
2018-01-27T03:52:39.665Z,67.29
2018-01-27T03:55:10.749Z,67.42
2018-01-27T03:57:41.787Z,67.41
2018-01-27T04:00:12.904Z,67.46
2018-01-27T04:02:44.007Z,67.63
2018-01-27T04:05:15.068Z,67.63
2018-01-27T04:07:46.162Z,67.32
2018-01-27T04:10:17.226Z,67.37
2018-01-27T04:12:48.469Z,67.55
2018-01-27T04:15:19.529Z,67.72
2018-01-27T04:17:50.612Z,67.81
2018-01-27T04:20:21.731Z,67.59
2018-01-27T04:22:52.823Z,67.76
2018-01-27T04:25:23.898Z,67.99
2018-01-27T04:27:55.027Z,67.86
2018-01-27T04:30:26.155Z,67.80
2018-01-27T04:32:57.201Z,67.65
2018-01-27T04:35:28.318Z,67.56
2018-01-27T04:37:59.390Z,67.82
2018-01-27T04:40:30.496Z,68.29
2018-01-27T04:43:01.538Z,68.70
2018-01-27T04:45:32.661Z,68.94
2018-01-27T04:48:03.748Z,69.33
2018-01-27T04:50:34.894Z,69.36
2018-01-27T04:53:05.965Z,69.22
2018-01-27T04:55:37.019Z,69.20
2018-01-27T04:58:08.079Z,69.17
2018-01-27T05:00:39.151Z,69.04
2018-01-27T05:03:10.243Z,69.41
2018-01-27T05:05:41.293Z,69.44
2018-01-27T05:08:13.150Z,69.64
2018-01-27T05:10:44.207Z,69.93
2018-01-27T05:13:15.320Z,70.15
2018-01-27T05:15:46.379Z,70.74
2018-01-27T05:18:17.434Z,70.75
2018-01-27T05:20:48.500Z,70.78
2018-01-27T05:23:19.605Z,70.60
2018-01-27T05:25:50.717Z,70.48
2018-01-27T05:28:21.982Z,70.48
2018-01-27T05:30:53.045Z,70.45
2018-01-27T05:33:24.130Z,70.41
2018-01-27T05:35:55.254Z,70.16
2018-01-27T05:38:26.325Z,69.77
2018-01-27T05:40:57.433Z,69.72
2018-01-27T05:43:28.491Z,69.57
2018-01-27T05:46:06.508Z,70.04
2018-01-27T05:48:37.799Z,70.36
2018-01-27T05:51:08.842Z,70.38
2018-01-27T05:53:39.952Z,70.26
2018-01-27T05:56:10.995Z,70.57
2018-01-27T05:58:42.080Z,70.35
2018-01-27T06:01:13.152Z,70.11
2018-01-27T06:03:44.223Z,70.68
2018-01-27T06:06:15.448Z,70.61
2018-01-27T06:08:46.539Z,70.42
2018-01-27T06:11:17.682Z,70.65
2018-01-27T06:13:48.783Z,70.51
2018-01-27T06:16:20.146Z,70.21
2018-01-27T06:18:51.240Z,69.91
2018-01-27T06:21:22.367Z,69.49
2018-01-27T06:23:53.463Z,69.08
2018-01-27T06:26:24.556Z,68.99
2018-01-27T06:28:55.672Z,68.87
2018-01-27T06:31:27.831Z,68.73
2018-01-27T06:33:58.908Z,68.75
2018-01-27T06:36:29.966Z,68.83
2018-01-27T06:39:01.072Z,68.75
2018-01-27T06:41:32.173Z,68.71
2018-01-27T06:44:03.206Z,68.65
2018-01-27T06:46:34.299Z,68.48
2018-01-27T06:49:05.409Z,68.27
2018-01-27T06:51:36.453Z,68.10
2018-01-27T06:54:07.503Z,67.91
2018-01-27T06:56:38.595Z,67.80
2018-01-27T06:59:09.639Z,67.87
2018-01-27T07:01:40.723Z,67.62
2018-01-27T07:04:11.806Z,67.49
2018-01-27T07:06:42.891Z,67.16
2018-01-27T07:09:13.974Z,66.93
2018-01-27T07:11:45.088Z,66.90
2018-01-27T07:14:16.140Z,66.89
2018-01-27T07:16:47.203Z,66.73
2018-01-27T07:19:18.251Z,66.50
2018-01-27T07:21:49.328Z,66.64
2018-01-27T07:24:20.358Z,66.41
2018-01-27T07:26:51.435Z,66.51
2018-01-27T07:29:22.512Z,66.59
2018-01-27T07:31:53.599Z,66.64
2018-01-27T07:34:24.665Z,66.85
2018-01-27T07:36:55.835Z,66.88
2018-01-27T07:39:26.889Z,66.63
2018-01-27T07:41:58.408Z,66.29
2018-01-27T07:44:29.458Z,65.72
2018-01-27T07:47:01.614Z,65.43
2018-01-27T07:49:32.709Z,65.32
2018-01-27T07:52:03.846Z,65.18
2018-01-27T07:54:34.973Z,64.90
2018-01-27T07:57:06.020Z,64.91
2018-01-27T07:59:37.137Z,65.18
2018-01-27T08:02:08.268Z,65.17
2018-01-27T08:04:39.368Z,65.56
2018-01-27T08:07:10.507Z,65.99
2018-01-27T08:09:41.551Z,66.05
2018-01-27T08:12:12.632Z,65.81
2018-01-27T08:14:43.790Z,65.90
2018-01-27T08:17:15.023Z,65.78
2018-01-27T08:19:46.106Z,65.63
2018-01-27T08:22:17.177Z,65.07
2018-01-27T08:24:48.318Z,64.79
2018-01-27T08:27:19.419Z,64.32
2018-01-27T08:29:50.492Z,64.33
2018-01-27T08:32:21.639Z,64.06
2018-01-27T08:34:52.759Z,63.57
2018-01-27T08:37:23.833Z,63.44
2018-01-27T08:39:55.546Z,62.64
2018-01-27T08:42:26.654Z,62.14
2018-01-27T08:44:57.750Z,61.97
2018-01-27T08:47:28.846Z,61.57
2018-01-27T08:49:59.926Z,61.17
2018-01-27T08:52:31.062Z,61.37
2018-01-27T13:27:57.421Z,51.18
2018-01-27T13:30:28.506Z,51.02
2018-01-27T13:32:59.619Z,50.60
2018-01-27T13:35:30.735Z,50.26
2018-01-27T13:38:01.946Z,50.19
2018-01-27T13:40:33.055Z,50.41
2018-01-27T13:43:04.209Z,50.49
2018-01-27T13:45:35.382Z,50.65
2018-01-27T13:48:07.636Z,50.84
2018-01-27T13:50:38.872Z,50.85
2018-01-27T13:53:09.977Z,50.96
2018-01-27T13:55:41.062Z,51.30
2018-01-27T13:58:12.133Z,51.19
2018-01-27T14:00:43.434Z,51.21
2018-01-27T14:03:15.461Z,51.77
2018-01-27T14:05:46.723Z,51.74
2018-01-27T14:08:17.892Z,51.94
2018-01-27T14:10:49.017Z,52.16
2018-01-27T14:13:20.169Z,52.10
2018-01-27T14:15:51.578Z,52.64
2018-01-27T14:18:22.796Z,52.77
2018-01-27T14:20:53.952Z,53.30
2018-01-27T14:23:25.037Z,53.08
2018-01-27T14:25:56.133Z,52.80
2018-01-27T14:28:27.255Z,53.23
2018-01-27T14:30:58.370Z,53.33
2018-01-27T14:33:29.439Z,53.65
2018-01-27T14:36:00.598Z,53.60
2018-01-27T14:38:31.660Z,53.60
2018-01-27T14:41:02.810Z,53.99
2018-01-27T14:43:33.899Z,54.57
2018-01-27T14:46:05.587Z,55.16
2018-01-27T14:48:36.670Z,55.81
2018-01-27T14:51:07.798Z,56.11
2018-01-27T14:53:39.657Z,56.10
2018-01-27T14:56:10.774Z,55.74
2018-01-27T14:58:41.839Z,55.53
2018-01-27T15:01:12.965Z,55.17
2018-01-27T15:03:44.009Z,55.08
2018-01-27T15:06:15.082Z,55.23
2018-01-27T15:08:46.421Z,55.67
2018-01-27T15:11:17.679Z,55.91
2018-01-27T15:13:49.718Z,56.44
2018-01-27T15:16:20.838Z,56.46
2018-01-27T15:18:51.969Z,56.47
2018-01-27T15:21:23.038Z,56.63
2018-01-27T15:23:54.184Z,56.43
2018-01-27T15:26:25.259Z,56.55
2018-01-27T15:28:56.558Z,56.93
2018-01-27T15:31:27.655Z,57.57
2018-01-27T15:33:58.770Z,57.89
2018-01-27T15:36:29.873Z,57.76
2018-01-27T15:39:01.958Z,57.33
2018-01-27T15:41:33.028Z,57.20
2018-01-27T15:44:04.234Z,57.20
2018-01-27T15:46:35.516Z,57.60
2018-01-27T15:49:06.573Z,57.75
2018-01-27T15:51:37.690Z,57.91
2018-01-27T15:54:08.752Z,58.19
2018-01-27T15:56:39.895Z,58.73
2018-01-27T15:59:11.045Z,58.51
2018-01-27T16:01:42.129Z,58.39
2018-01-27T16:04:13.181Z,58.20
2018-01-27T16:06:44.310Z,58.15
2018-01-27T16:09:15.741Z,58.17
2018-01-27T16:11:46.964Z,58.29
2018-01-27T16:14:18.086Z,58.61
2018-01-27T16:16:49.191Z,58.65
2018-01-27T16:19:20.283Z,58.78
2018-01-27T16:21:51.392Z,58.70
2018-01-27T16:24:22.477Z,58.76
2018-01-27T16:26:53.572Z,58.75
2018-01-27T16:29:24.680Z,58.65
2018-01-27T16:31:55.752Z,58.54
2018-01-27T16:34:27.588Z,58.45
2018-01-27T16:36:58.672Z,58.63
2018-01-27T16:39:29.767Z,58.92
2018-01-27T16:42:00.866Z,59.00
2018-01-27T16:44:31.988Z,59.06
2018-01-27T16:47:03.125Z,58.82
2018-01-27T16:49:34.212Z,58.65
2018-01-27T16:52:05.316Z,58.88
2018-01-27T16:54:36.424Z,59.05
2018-01-27T16:57:07.486Z,59.27
2018-01-27T16:59:38.653Z,59.10
2018-01-27T17:02:09.768Z,59.08
2018-01-27T17:04:40.847Z,59.06
2018-01-27T17:07:11.915Z,58.81
2018-01-27T17:09:42.987Z,58.74
2018-01-27T17:12:14.263Z,58.74
2018-01-27T17:14:45.334Z,58.88
2018-01-27T17:17:16.608Z,59.18
2018-01-27T17:19:47.814Z,59.29
2018-01-27T17:22:19.204Z,59.29
2018-01-27T17:24:50.326Z,59.04
2018-01-27T17:27:21.724Z,58.98
2018-01-27T17:29:52.803Z,58.89
2018-01-27T17:32:24.004Z,59.42
2018-01-27T17:34:55.062Z,59.48
2018-01-27T17:37:26.114Z,59.07
2018-01-27T17:39:57.338Z,58.90
2018-01-27T17:42:28.416Z,59.12
2018-01-27T17:44:59.504Z,59.15
2018-01-27T17:47:30.545Z,59.03
2018-01-27T17:50:01.672Z,58.93
2018-01-27T17:52:32.687Z,58.73
2018-01-27T17:55:03.782Z,58.70
2018-01-27T17:57:34.933Z,58.74
2018-01-27T18:00:06.068Z,58.65
2018-01-27T18:02:37.213Z,58.77
2018-01-27T18:05:08.318Z,59.14
2018-01-27T18:07:39.396Z,59.59
2018-01-27T18:10:10.509Z,59.98
2018-01-27T18:12:41.621Z,60.05
2018-01-27T18:15:12.686Z,60.18
2018-01-27T18:17:43.747Z,60.18
2018-01-27T18:20:14.903Z,60.28
2018-01-27T18:22:45.990Z,60.09
2018-01-27T18:25:17.071Z,60.15
2018-01-27T18:27:48.161Z,60.19
2018-01-27T18:30:19.283Z,60.65
2018-01-27T18:32:50.342Z,60.57
2018-01-27T18:35:21.482Z,60.53
2018-01-27T18:37:54.303Z,60.53
2018-01-27T18:40:25.385Z,60.66
2018-01-27T18:42:56.478Z,60.75
2018-01-27T18:45:27.522Z,60.84
2018-01-27T18:47:58.682Z,60.53
2018-01-27T18:50:29.751Z,60.40
2018-01-27T18:53:00.837Z,60.45
2018-01-27T18:55:31.879Z,60.31
2018-01-27T18:58:03.223Z,60.03
2018-01-27T19:00:34.326Z,60.09
2018-01-27T19:03:05.438Z,60.37
2018-01-27T19:05:36.547Z,60.65
2018-01-27T19:08:07.634Z,61.05
2018-01-27T19:10:38.702Z,60.72
2018-01-27T19:13:09.765Z,60.87
2018-01-27T19:15:40.886Z,61.01
2018-01-27T19:18:12.015Z,61.55
2018-01-27T19:20:43.132Z,61.54
2018-01-27T19:23:14.212Z,61.49
2018-01-27T19:25:46.122Z,61.38
2018-01-27T19:28:17.174Z,61.22
2018-01-27T19:30:48.283Z,61.26
2018-01-27T19:33:19.438Z,60.90
2018-01-27T19:35:50.546Z,61.14
2018-01-27T19:38:22.525Z,61.18
2018-01-27T19:40:53.681Z,61.22
2018-01-27T19:43:24.794Z,61.47
2018-01-27T19:45:55.835Z,61.44
2018-01-27T19:48:26.990Z,61.22
2018-01-27T19:50:58.080Z,61.15
2018-01-27T19:53:29.187Z,61.01
2018-01-27T19:56:00.344Z,61.03
2018-01-27T19:58:31.466Z,61.15
2018-01-27T20:01:02.592Z,61.10
2018-01-27T20:03:33.685Z,61.25
2018-01-27T20:06:04.857Z,61.37
2018-01-27T20:08:35.992Z,61.66
2018-01-27T20:11:07.151Z,61.78
2018-01-27T20:13:38.238Z,61.66
2018-01-27T20:16:09.276Z,61.83
2018-01-27T20:18:40.362Z,62.18
2018-01-27T20:21:11.492Z,62.62
2018-01-27T20:23:42.634Z,63.21
2018-01-27T20:26:14.644Z,63.92
2018-01-27T20:28:45.764Z,64.35
2018-01-27T20:31:16.790Z,65.31
2018-01-27T20:33:47.901Z,65.53
2018-01-27T20:36:18.957Z,66.09
2018-01-27T20:38:50.064Z,66.51
2018-01-27T20:41:21.163Z,66.92
2018-01-27T20:43:52.227Z,67.11
2018-01-27T20:46:23.325Z,67.68
2018-01-27T20:48:54.370Z,67.68
2018-01-27T20:51:25.480Z,67.65
2018-01-27T20:53:56.571Z,67.22
2018-01-27T20:56:27.672Z,66.73
2018-01-27T20:58:58.791Z,66.38
2018-01-27T21:01:29.935Z,65.97
2018-01-27T21:04:01.090Z,65.80
2018-01-27T21:06:32.257Z,65.45
2018-01-27T21:09:03.451Z,65.38
2018-01-27T21:11:34.518Z,65.31
2018-01-27T21:14:05.630Z,65.13
2018-01-27T21:16:36.694Z,64.96
2018-01-27T21:19:07.768Z,64.79
2018-01-27T21:21:38.907Z,64.69
2018-01-27T21:24:10.014Z,64.87
2018-01-27T21:26:41.140Z,64.92
2018-01-27T21:29:12.265Z,64.66
2018-01-27T21:31:43.340Z,64.33
2018-01-27T21:34:14.431Z,64.29
2018-01-27T21:36:46.244Z,64.27
2018-01-27T21:39:17.333Z,64.40
2018-01-27T21:41:48.492Z,64.61
2018-01-27T21:44:19.546Z,64.60
2018-01-27T21:46:50.661Z,64.27
2018-01-27T21:49:21.723Z,63.96
2018-01-27T21:51:52.805Z,63.67
2018-01-27T21:54:23.908Z,63.64
2018-01-27T21:56:54.986Z,63.60
2018-01-27T21:59:26.102Z,63.43
2018-01-27T22:01:57.165Z,63.21
2018-01-27T22:04:28.303Z,63.00
2018-01-27T22:06:59.372Z,62.82
2018-01-27T22:09:30.468Z,62.76
2018-01-27T22:12:01.550Z,62.93
2018-01-27T22:14:32.676Z,62.91
2018-01-27T22:17:03.751Z,63.17
2018-01-27T22:19:34.917Z,63.46
2018-01-27T22:22:05.957Z,63.63
2018-01-27T22:24:37.038Z,63.72
2018-01-27T22:27:08.169Z,63.54
2018-01-27T22:29:39.287Z,63.45
2018-01-27T22:32:10.419Z,63.61
2018-01-27T22:34:41.523Z,63.60
2018-01-27T22:37:12.605Z,63.65
2018-01-27T22:39:43.717Z,63.68
2018-01-27T22:42:14.842Z,63.75
2018-01-27T22:44:45.914Z,63.82
2018-01-27T22:47:17.013Z,63.70
2018-01-27T22:49:48.117Z,63.72
2018-01-27T22:52:19.249Z,63.83
2018-01-27T22:54:50.360Z,63.89
2018-01-27T22:57:21.468Z,63.98
2018-01-27T22:59:52.583Z,63.91
2018-01-27T23:02:23.639Z,63.74
2018-01-27T23:04:54.749Z,63.54
2018-01-27T23:07:25.904Z,63.48
2018-01-27T23:09:57.021Z,63.69
2018-01-27T23:12:28.071Z,63.63
2018-01-27T23:14:59.242Z,63.69
2018-01-27T23:17:30.346Z,64.07
2018-01-27T23:20:01.628Z,63.91
2018-01-27T23:22:32.772Z,63.70
2018-01-27T23:25:03.844Z,63.66
2018-01-27T23:27:34.921Z,63.69
2018-01-27T23:30:05.973Z,63.58
2018-01-27T23:32:37.090Z,63.62
2018-01-27T23:35:08.207Z,63.71
2018-01-27T23:37:39.266Z,63.79
2018-01-27T23:40:10.310Z,63.80
2018-01-27T23:42:41.389Z,63.64
2018-01-27T23:45:12.529Z,63.61
2018-01-27T23:47:43.592Z,63.70
2018-01-27T23:50:14.690Z,63.86
2018-01-27T23:52:45.746Z,64.12
2018-01-27T23:55:16.863Z,64.27
2018-01-27T23:57:47.949Z,64.24
